Time;durP1;ratioP1;P1;durP2;ratioP2;P2;SDS_P1;SDS_P2;PMS_P1;PMS_P2;Temp;Humidity;BMP_temperature;BMP_pressure;BME280_temperature;BME280_humidity;BME280_pressure;Samples;Min_cycle;Max_cycle;Signal;HPM_P1;HPM_P2
2023/07/07 00:00:09;;;;;;;10.60;10.30;;;15.50;99.90;;;;;;4998988;28;20240;-76
2023/07/07 00:02:36;;;;;;;10.90;10.60;;;15.40;99.90;;;;;;4998981;28;20241;-76
2023/07/07 00:05:04;;;;;;;10.52;10.23;;;15.40;99.90;;;;;;4998753;28;20247;-76
2023/07/07 00:07:32;;;;;;;10.90;10.60;;;15.30;99.90;;;;;;4998624;28;20233;-76
2023/07/07 00:10:01;;;;;;;10.90;10.60;;;15.30;99.90;;;;;;5003113;28;20268;-75
2023/07/07 00:12:30;;;;;;;11.20;10.90;;;15.20;99.90;;;;;;5003339;28;20237;-76
2023/07/07 00:14:57;;;;;;;10.95;10.65;;;15.10;99.90;;;;;;5003095;28;20253;-76
2023/07/07 00:17:25;;;;;;;11.05;10.75;;;15.00;99.90;;;;;;5003996;28;20304;-76
2023/07/07 00:19:53;;;;;;;11.35;11.05;;;14.90;99.90;;;;;;4998876;28;20296;-76
2023/07/07 00:22:20;;;;;;;11.07;10.77;;;14.80;99.90;;;;;;4998727;28;20233;-76
2023/07/07 00:24:48;;;;;;;10.93;10.63;;;14.80;99.90;;;;;;4998188;28;20240;-76
2023/07/07 00:27:17;;;;;;;11.25;10.95;;;14.70;99.90;;;;;;4998525;28;20213;-76
2023/07/07 00:29:44;;;;;;;11.30;11.00;;;14.70;99.90;;;;;;4998557;28;20244;-77
2023/07/07 00:32:12;;;;;;;11.30;11.00;;;14.70;99.90;;;;;;4998681;28;20233;-76
2023/07/07 00:34:39;;;;;;;11.30;11.00;;;14.60;99.90;;;;;;4998334;28;20286;-76
2023/07/07 00:37:07;;;;;;;10.98;10.68;;;14.60;99.90;;;;;;4988397;28;20260;-76
2023/07/07 00:39:34;;;;;;;10.70;10.40;;;14.60;99.90;;;;;;4998013;28;20233;-76
2023/07/07 00:42:01;;;;;;;10.80;10.50;;;14.60;99.90;;;;;;4998822;28;20239;-76
2023/07/07 00:45:10;;;;;;;10.63;10.32;;;14.50;99.90;;;;;;5000878;28;20297;-76
2023/07/07 00:47:44;;;;;;;10.40;10.10;;;14.50;99.90;;;;;;4998459;28;20237;-76
2023/07/07 00:50:12;;;;;;;10.52;10.23;;;14.50;99.90;;;;;;4998348;28;20233;-78
2023/07/07 00:52:43;;;;;;;10.70;10.40;;;14.40;99.90;;;;;;4998218;28;20237;-77
2023/07/07 00:55:16;;;;;;;10.73;10.43;;;14.40;99.90;;;;;;4998042;28;20319;-76
2023/07/07 00:57:43;;;;;;;10.30;10.00;;;14.40;99.90;;;;;;4998137;28;20232;-76
2023/07/07 01:00:13;;;;;;;10.40;10.10;;;14.30;99.90;;;;;;4998050;28;20702;-76
2023/07/07 01:02:44;;;;;;;10.70;10.40;;;14.30;99.90;;;;;;4998369;28;20243;-77
2023/07/07 01:05:11;;;;;;;10.63;10.32;;;14.30;99.90;;;;;;4997832;28;20233;-76
2023/07/07 01:07:44;;;;;;;10.65;10.35;;;14.30;99.90;;;;;;4999425;28;20236;-76
2023/07/07 01:10:11;;;;;;;10.63;10.32;;;14.30;99.90;;;;;;4998893;28;20229;-76
2023/07/07 01:12:39;;;;;;;10.30;10.00;;;14.30;99.90;;;;;;4999019;28;20232;-76
2023/07/07 01:15:08;;;;;;;10.35;10.05;;;14.30;99.90;;;;;;4998421;28;20237;-76
2023/07/07 01:17:50;;;;;;;10.50;10.20;;;14.20;99.90;;;;;;4997964;28;20229;-76
2023/07/07 01:20:30;;;;;;;10.77;10.48;;;14.20;99.90;;;;;;4997462;28;20246;-78
2023/07/07 01:23:47;;;;;;;10.70;10.40;;;14.20;99.90;;;;;;4997939;28;20236;-77
2023/07/07 01:26:59;;;;;;;10.70;10.40;;;14.20;99.90;;;;;;4998738;28;20253;-76
2023/07/07 01:30:12;;;;;;;11.00;10.70;;;14.10;99.90;;;;;;4997649;28;20225;-76
2023/07/07 01:32:44;;;;;;;10.80;10.50;;;14.10;99.90;;;;;;4975175;28;20274;-76
2023/07/07 01:35:15;;;;;;;11.23;10.93;;;14.10;99.90;;;;;;4997791;28;20239;-77
2023/07/07 01:37:54;;;;;;;11.13;10.83;;;14.00;99.90;;;;;;5002251;28;20236;-76
2023/07/07 01:40:24;;;;;;;11.10;10.80;;;14.00;99.90;;;;;;5001128;28;20259;-75
2023/07/07 01:43:03;;;;;;;10.63;10.33;;;13.90;99.90;;;;;;5001491;28;20311;-75
2023/07/07 01:45:41;;;;;;;10.67;10.37;;;13.90;99.90;;;;;;4999169;28;20236;-74
2023/07/07 01:48:22;;;;;;;10.80;10.50;;;13.90;99.90;;;;;;4998286;28;20232;-76
2023/07/07 01:50:52;;;;;;;10.82;10.52;;;13.90;99.90;;;;;;4999351;28;20239;-76
2023/07/07 01:53:25;;;;;;;11.15;10.85;;;13.80;99.90;;;;;;4997708;28;20699;-75
2023/07/07 01:55:57;;;;;;;11.00;10.70;;;13.70;99.90;;;;;;4997799;28;20235;-75
2023/07/07 01:58:30;;;;;;;11.30;11.00;;;13.60;99.90;;;;;;4997477;28;20240;-76
2023/07/07 02:00:58;;;;;;;11.23;10.93;;;13.40;99.90;;;;;;4997771;28;20225;-75
2023/07/07 02:03:29;;;;;;;11.10;10.80;;;13.40;99.90;;;;;;4997565;28;20259;-75
2023/07/07 02:05:57;;;;;;;11.10;10.80;;;13.40;99.90;;;;;;4996760;28;20288;-75
2023/07/07 02:08:24;;;;;;;11.20;10.90;;;13.30;99.90;;;;;;4997083;28;20225;-76
2023/07/07 02:10:51;;;;;;;11.20;10.90;;;13.30;99.90;;;;;;4997406;28;20313;-77
2023/07/07 02:13:19;;;;;;;11.10;10.80;;;13.30;99.90;;;;;;4997291;28;20253;-76
2023/07/07 02:15:47;;;;;;;11.10;10.80;;;13.20;99.90;;;;;;4997318;28;20316;-76
2023/07/07 02:18:14;;;;;;;11.10;10.80;;;13.10;99.90;;;;;;4997013;28;20297;-76
2023/07/07 02:20:43;;;;;;;10.90;10.60;;;13.10;99.90;;;;;;4996946;28;20225;-75
2023/07/07 02:23:11;;;;;;;10.87;10.57;;;13.00;99.90;;;;;;4997116;28;20235;-75
2023/07/07 02:25:38;;;;;;;10.80;10.50;;;13.00;99.90;;;;;;4996445;28;20265;-76
2023/07/07 02:28:06;;;;;;;11.00;10.70;;;13.00;99.90;;;;;;4996833;28;20225;-76
2023/07/07 02:30:35;;;;;;;11.10;10.80;;;12.90;99.90;;;;;;4998893;28;20248;-74
2023/07/07 02:33:03;;;;;;;11.17;10.87;;;12.90;99.90;;;;;;4998397;28;20237;-77
2023/07/07 02:35:31;;;;;;;11.27;10.97;;;12.80;99.90;;;;;;4996846;28;20224;-76
2023/07/07 02:38:00;;;;;;;11.27;10.97;;;12.80;99.90;;;;;;4997085;28;20229;-76
2023/07/07 02:40:29;;;;;;;10.80;10.50;;;12.80;99.90;;;;;;4996635;28;20244;-76
2023/07/07 02:42:57;;;;;;;10.93;10.63;;;12.80;99.90;;;;;;4997220;28;20279;-76
2023/07/07 02:45:24;;;;;;;11.00;10.70;;;12.70;99.90;;;;;;4996965;28;20243;-76
2023/07/07 02:47:52;;;;;;;10.90;10.60;;;12.70;99.90;;;;;;4997152;28;20244;-76
2023/07/07 02:50:20;;;;;;;10.90;10.60;;;12.70;99.90;;;;;;4996545;28;20237;-76
2023/07/07 02:52:47;;;;;;;11.47;11.07;;;12.70;99.90;;;;;;5000269;28;20233;-76
2023/07/07 02:55:16;;;;;;;11.10;10.80;;;12.80;99.90;;;;;;4999852;28;20236;-76
2023/07/07 02:57:43;;;;;;;11.27;10.97;;;12.70;99.90;;;;;;4999904;28;20239;-75
2023/07/07 03:00:13;;;;;;;10.80;10.50;;;12.70;99.90;;;;;;4999488;28;20221;-76
2023/07/07 03:02:40;;;;;;;11.20;10.90;;;12.70;99.90;;;;;;5000432;28;20237;-76
2023/07/07 03:05:09;;;;;;;11.00;10.70;;;12.60;99.90;;;;;;4999846;28;20295;-76
2023/07/07 03:07:36;;;;;;;11.13;10.83;;;12.60;99.90;;;;;;4999628;28;20228;-76
2023/07/07 03:10:06;;;;;;;11.13;10.83;;;12.60;99.90;;;;;;4999660;28;20233;-75
2023/07/07 03:12:35;;;;;;;11.53;11.13;;;12.60;99.90;;;;;;5000419;28;20607;-76
2023/07/07 03:15:04;;;;;;;11.53;11.13;;;12.50;99.90;;;;;;4999922;28;20324;-76
2023/07/07 03:17:32;;;;;;;11.40;11.00;;;12.60;99.90;;;;;;4999812;28;20236;-76
2023/07/07 03:19:59;;;;;;;11.50;11.10;;;12.50;99.90;;;;;;4999785;28;20241;-75
2023/07/07 03:22:26;;;;;;;11.33;10.97;;;12.50;99.90;;;;;;4999574;28;20232;-75
2023/07/07 03:24:54;;;;;;;11.20;10.90;;;12.50;99.90;;;;;;5001577;28;20233;-76
2023/07/07 03:27:21;;;;;;;11.50;11.10;;;12.40;99.90;;;;;;5000024;28;20261;-78
2023/07/07 03:29:52;;;;;;;11.20;10.90;;;12.40;99.90;;;;;;4999547;28;20245;-76
2023/07/07 03:32:20;;;;;;;11.13;10.83;;;12.40;99.90;;;;;;4999573;28;20229;-76
2023/07/07 03:34:49;;;;;;;11.20;10.90;;;12.40;99.90;;;;;;4999029;28;20237;-76
2023/07/07 03:37:17;;;;;;;11.40;11.00;;;12.40;99.90;;;;;;4999566;28;20304;-76
2023/07/07 03:39:45;;;;;;;10.83;10.53;;;12.50;99.90;;;;;;4999353;28;20232;-76
2023/07/07 03:42:12;;;;;;;10.90;10.60;;;12.40;99.90;;;;;;4999450;28;20248;-76
2023/07/07 03:44:39;;;;;;;10.90;10.60;;;12.40;99.90;;;;;;4999738;28;20240;-76
2023/07/07 03:47:08;;;;;;;10.97;10.67;;;12.40;99.90;;;;;;5000270;28;20243;-77
2023/07/07 03:49:36;;;;;;;11.50;11.10;;;12.40;99.90;;;;;;5001148;28;20328;-76
2023/07/07 03:52:04;;;;;;;11.00;10.70;;;12.40;99.90;;;;;;5001399;28;20228;-76
2023/07/07 03:54:31;;;;;;;11.00;10.70;;;12.40;99.90;;;;;;5001024;28;20296;-76
2023/07/07 03:56:59;;;;;;;10.93;10.63;;;12.30;99.90;;;;;;4999309;28;20328;-76
2023/07/07 03:59:28;;;;;;;10.90;10.60;;;12.30;99.90;;;;;;4999227;28;20221;-76
2023/07/07 04:01:55;;;;;;;11.00;10.70;;;12.20;99.90;;;;;;4999703;28;20240;-76
2023/07/07 04:04:25;;;;;;;11.10;10.80;;;12.20;99.90;;;;;;4998720;28;20233;-76
2023/07/07 04:06:56;;;;;;;11.03;10.73;;;12.30;99.90;;;;;;4999663;28;20240;-77
2023/07/07 04:09:24;;;;;;;11.20;10.90;;;12.30;99.90;;;;;;4999242;28;20268;-77
2023/07/07 04:11:52;;;;;;;10.90;10.60;;;12.30;99.90;;;;;;4999053;28;20243;-76
2023/07/07 04:14:19;;;;;;;11.10;10.80;;;12.30;99.90;;;;;;4999119;28;20249;-76
2023/07/07 04:16:47;;;;;;;11.10;10.80;;;12.30;99.90;;;;;;5000490;28;20244;-76
2023/07/07 04:19:14;;;;;;;11.20;10.90;;;12.40;99.90;;;;;;5004531;28;20225;-76
2023/07/07 04:21:43;;;;;;;11.10;10.80;;;12.40;99.90;;;;;;5004203;28;20240;-76
2023/07/07 04:24:11;;;;;;;11.27;10.97;;;12.40;99.90;;;;;;5002711;28;20239;-76
2023/07/07 04:26:39;;;;;;;11.10;10.80;;;12.50;99.90;;;;;;5001924;28;20244;-76
2023/07/07 04:29:07;;;;;;;11.40;11.00;;;12.60;99.90;;;;;;5000937;28;20784;-76
2023/07/07 04:31:34;;;;;;;11.00;10.70;;;12.60;99.90;;;;;;5001064;28;20292;-76
2023/07/07 04:34:02;;;;;;;11.00;10.70;;;12.70;99.90;;;;;;5001097;28;20237;-76
2023/07/07 04:36:29;;;;;;;11.50;11.10;;;12.80;99.90;;;;;;4999067;28;20732;-76
2023/07/07 04:38:59;;;;;;;11.13;10.83;;;12.80;99.90;;;;;;4999873;28;20252;-76
2023/07/07 04:41:27;;;;;;;11.50;11.10;;;12.90;99.90;;;;;;4999831;28;20249;-76
2023/07/07 04:43:59;;;;;;;11.00;10.70;;;13.00;99.90;;;;;;5000262;28;20235;-75
2023/07/07 04:47:37;;;;;;;11.30;10.90;;;13.10;99.90;;;;;;5061071;23;20251;-83
2023/07/07 04:54:49;;;;;;;11.33;10.97;;;13.30;99.90;;;;;;4878572;29;20229;-83
2023/07/07 06:12:12;;;;;;;;;;;;;;;;;;;;;
2023/07/07 06:14:50;;;;;;;11.23;10.93;;;17.40;99.90;;;;;;4860871;29;20254;-86
2023/07/07 06:18:20;;;;;;;;;;;;;;;;;;;;;
2023/07/07 06:21:01;;;;;;;11.13;10.82;;;17.80;99.90;;;;;;4939326;29;20230;-87
2023/07/07 06:23:46;;;;;;;11.20;10.90;;;17.80;99.90;;;;;;4961034;28;20293;-88
2023/07/07 06:26:27;;;;;;;11.48;11.13;;;17.90;99.90;;;;;;4983022;28;20249;-89
2023/07/07 06:32:36;;;;;;;11.07;10.77;;;18.20;99.90;;;;;;4972429;28;20244;-84
2023/07/07 06:35:06;;;;;;;11.10;10.80;;;18.50;99.90;;;;;;4988151;28;20240;-82
2023/07/07 06:37:34;;;;;;;11.18;10.88;;;18.60;99.90;;;;;;4988462;28;20240;-81
2023/07/07 06:40:02;;;;;;;11.13;10.82;;;18.80;99.90;;;;;;4988489;28;20225;-82
2023/07/07 06:42:31;;;;;;;11.02;10.73;;;18.90;99.90;;;;;;4988611;28;20237;-83
2023/07/07 06:45:05;;;;;;;10.88;10.57;;;19.00;99.90;;;;;;4988090;28;20229;-82
2023/07/07 06:47:40;;;;;;;10.95;10.65;;;19.20;99.90;;;;;;4987707;28;20303;-82
2023/07/07 06:50:26;;;;;;;10.70;10.40;;;19.30;99.90;;;;;;4987818;28;20264;-84
2023/07/07 06:52:55;;;;;;;10.93;10.63;;;19.40;99.90;;;;;;4990003;28;20233;-81
2023/07/07 06:55:26;;;;;;;11.05;10.75;;;19.50;99.90;;;;;;4989460;28;20241;-82
2023/07/07 06:57:54;;;;;;;10.90;10.60;;;19.70;99.90;;;;;;4987382;28;20256;-81
2023/07/07 07:00:23;;;;;;;10.68;10.38;;;19.90;99.90;;;;;;4987881;28;20261;-81
2023/07/07 07:05:50;;;;;;;10.68;10.38;;;20.20;99.90;;;;;;4987076;28;20229;-83
2023/07/07 10:50:20;;;;;;;11.20;10.90;;;31.00;99.90;;;;;;4982733;28;20269;-84
2023/07/07 10:53:16;;;;;;;11.25;10.95;;;31.30;99.90;;;;;;4977852;28;20233;-86
2023/07/07 10:59:34;;;;;;;10.85;10.55;;;32.10;99.90;;;;;;4944181;29;20240;-87
2023/07/07 11:02:38;;;;;;;11.25;10.95;;;32.10;99.90;;;;;;4946372;28;20223;-87
2023/07/07 11:06:07;;;;;;;11.13;10.82;;;32.40;99.90;;;;;;4965126;28;20237;-89
2023/07/07 11:09:18;;;;;;;11.00;10.70;;;32.30;99.90;;;;;;4961820;28;20245;-87
2023/07/07 11:19:22;;;;;;;10.90;10.60;;;31.70;99.90;;;;;;4909194;29;20240;-89
2023/07/07 11:22:47;;;;;;;11.10;10.80;;;31.70;99.90;;;;;;4910727;29;20294;-88
2023/07/07 12:15:45;;;;;;;10.80;10.50;;;34.00;95.00;;;;;;4976192;28;20261;-89
2023/07/07 12:18:45;;;;;;;11.00;10.70;;;33.60;96.30;;;;;;4984116;28;20265;-89
2023/07/07 12:21:22;;;;;;;11.05;10.75;;;33.40;94.80;;;;;;4984305;28;20236;-89
2023/07/07 12:27:26;;;;;;;;;;;;;;;;;;;;;
2023/07/07 12:30:36;;;;;;;11.23;10.93;;;32.60;94.90;;;;;;4983484;28;20257;-89
2023/07/07 12:43:43;;;;;;;11.50;11.20;;;34.70;94.40;;;;;;4948110;28;20237;-91
2023/07/07 12:46:42;;;;;;;11.30;11.00;;;34.90;93.20;;;;;;4986694;28;20233;-90
2023/07/07 13:17:23;;;;;;;11.10;10.80;;;35.10;90.10;;;;;;4981932;28;20233;-89
2023/07/07 13:20:11;;;;;;;11.10;10.80;;;35.00;91.60;;;;;;4982784;28;20353;-90
2023/07/07 13:22:54;;;;;;;11.10;10.80;;;34.70;90.50;;;;;;4982575;28;20325;-89
2023/07/07 13:28:30;;;;;;;10.82;10.52;;;34.50;90.70;;;;;;4985612;28;20263;-90
2023/07/07 13:32:01;;;;;;;;;;;;;;;;;;;;;
2023/07/07 13:34:33;;;;;;;10.85;10.55;;;35.00;90.70;;;;;;4968405;28;20250;-88
2023/07/07 13:58:29;;;;;;;11.25;10.95;;;33.50;87.50;;;;;;4895857;29;20256;-88
2023/07/07 14:01:34;;;;;;;11.43;11.13;;;33.70;92.00;;;;;;4901611;29;20236;-89
2023/07/07 14:04:11;;;;;;;11.75;11.35;;;34.20;90.30;;;;;;4931074;28;20297;-84
2023/07/07 15:11:20;;;;;;;11.43;11.13;;;35.70;81.00;;;;;;5006679;28;20216;-86
2023/07/07 15:18:05;;;;;;;10.95;10.65;;;36.20;79.60;;;;;;4901042;29;20222;-86
2023/07/07 15:43:07;;;;;;;11.13;10.82;;;34.90;77.50;;;;;;4872526;29;20253;-84
2023/07/07 15:45:36;;;;;;;11.27;10.98;;;34.80;76.50;;;;;;4941962;29;20234;-86
2023/07/07 15:48:06;;;;;;;11.20;10.90;;;34.80;79.30;;;;;;5000606;28;20244;-85
2023/07/07 15:50:45;;;;;;;11.20;10.90;;;34.90;81.80;;;;;;5010580;28;20233;-85
2023/07/07 15:53:33;;;;;;;11.10;10.80;;;35.00;78.10;;;;;;5012611;28;20288;-87
2023/07/07 15:56:01;;;;;;;11.07;10.77;;;34.70;78.00;;;;;;5014991;28;20220;-84
2023/07/07 15:58:55;;;;;;;11.00;10.70;;;34.60;77.20;;;;;;5008008;28;20249;-84
2023/07/07 16:08:24;;;;;;;11.10;10.80;;;35.50;79.50;;;;;;5000567;28;20220;-87
2023/07/07 16:11:25;;;;;;;11.18;10.88;;;36.20;77.50;;;;;;5002856;28;20260;-86
2023/07/07 16:14:17;;;;;;;11.40;11.10;;;36.70;76.40;;;;;;5003430;28;20249;-86
2023/07/07 16:21:35;;;;;;;11.15;10.85;;;35.90;73.40;;;;;;4940952;29;20230;-89
2023/07/07 16:24:59;;;;;;;11.35;11.05;;;35.10;74.70;;;;;;4902754;29;20270;-87
2023/07/07 16:34:45;;;;;;;11.35;11.05;;;35.50;75.20;;;;;;4986878;28;20453;-89
2023/07/07 16:37:27;;;;;;;11.70;11.30;;;35.90;77.80;;;;;;4986133;28;20241;-87
2023/07/07 16:39:59;;;;;;;11.50;11.20;;;36.40;74.10;;;;;;4975816;28;20245;-86
2023/07/07 16:42:38;;;;;;;11.40;11.10;;;36.60;74.20;;;;;;4980796;28;20237;-86
2023/07/07 16:45:11;;;;;;;11.20;10.90;;;36.70;72.70;;;;;;4975876;28;20278;-86
2023/07/07 16:47:45;;;;;;;11.30;11.00;;;36.80;75.70;;;;;;4973069;28;20237;-86
2023/07/07 16:50:33;;;;;;;11.02;10.73;;;36.60;72.00;;;;;;4986009;28;20237;-85
2023/07/07 16:53:03;;;;;;;11.10;10.80;;;36.30;70.70;;;;;;4999885;23;20355;-79
2023/07/07 16:55:31;;;;;;;10.50;10.20;;;36.00;72.10;;;;;;4968048;28;20317;-79
2023/07/07 16:57:59;;;;;;;10.68;10.38;;;35.80;73.50;;;;;;4983049;28;20293;-78
2023/07/07 17:00:39;;;;;;;10.27;9.98;;;35.60;72.30;;;;;;4982833;28;20237;-78
2023/07/07 17:03:08;;;;;;;10.40;10.10;;;35.50;71.80;;;;;;4981815;28;20289;-78
2023/07/07 17:05:38;;;;;;;10.48;10.18;;;35.30;72.50;;;;;;4981877;28;20288;-78
2023/07/07 17:08:12;;;;;;;10.48;10.18;;;35.10;72.80;;;;;;4982482;28;20289;-77
2023/07/07 17:10:42;;;;;;;11.05;10.75;;;34.90;71.80;;;;;;4985092;28;20252;-79
2023/07/07 17:13:15;;;;;;;11.05;10.75;;;34.90;72.80;;;;;;4981282;28;20237;-80
2023/07/07 17:15:44;;;;;;;11.02;10.73;;;34.70;71.80;;;;;;4983223;28;20233;-78
2023/07/07 17:18:14;;;;;;;10.93;10.63;;;34.60;71.60;;;;;;4983884;28;20233;-80
2023/07/07 17:26:55;;;;;;;10.90;10.60;;;33.60;72.00;;;;;;4931586;28;20226;-79
2023/07/07 17:29:23;;;;;;;10.95;10.65;;;33.50;72.80;;;;;;4983088;28;20237;-78
2023/07/07 17:31:51;;;;;;;10.90;10.60;;;33.50;72.10;;;;;;4982425;28;20261;-78
2023/07/07 17:34:19;;;;;;;11.13;10.82;;;33.60;74.30;;;;;;4982722;28;20241;-78
2023/07/07 17:36:48;;;;;;;11.10;10.80;;;33.90;72.70;;;;;;4982918;28;20225;-78
2023/07/07 17:39:19;;;;;;;11.10;10.80;;;34.20;73.10;;;;;;4982949;28;20272;-78
2023/07/07 17:41:48;;;;;;;10.93;10.63;;;34.60;74.10;;;;;;4981671;28;20234;-78
2023/07/07 17:44:15;;;;;;;10.98;10.68;;;35.10;73.80;;;;;;4982132;28;20229;-78
2023/07/07 17:46:43;;;;;;;11.10;10.80;;;35.50;71.40;;;;;;4984129;28;20218;-78
2023/07/07 17:49:15;;;;;;;11.05;10.75;;;35.40;72.20;;;;;;4983475;28;20234;-78
2023/07/07 17:51:44;;;;;;;11.20;10.90;;;35.20;72.40;;;;;;4982087;28;20272;-78
2023/07/07 17:54:14;;;;;;;11.00;10.70;;;34.90;73.00;;;;;;4980686;28;20277;-78
2023/07/07 17:56:43;;;;;;;10.95;10.65;;;34.90;72.20;;;;;;4981677;28;20232;-78
2023/07/07 17:59:18;;;;;;;10.90;10.60;;;34.80;72.70;;;;;;4981319;28;20237;-77
2023/07/07 18:01:46;;;;;;;11.00;10.70;;;34.80;74.10;;;;;;4981215;28;20233;-78
2023/07/07 18:04:14;;;;;;;11.00;10.70;;;34.70;74.80;;;;;;4980827;28;20328;-77
2023/07/07 18:06:47;;;;;;;10.95;10.65;;;33.90;72.30;;;;;;4987583;28;20240;-78
2023/07/07 18:09:15;;;;;;;11.10;10.80;;;33.30;73.40;;;;;;4985406;28;20293;-77
2023/07/07 18:11:43;;;;;;;11.10;10.80;;;32.80;74.70;;;;;;4985347;28;20252;-77
2023/07/07 18:14:11;;;;;;;10.85;10.55;;;32.50;74.80;;;;;;4981702;28;20279;-77
2023/07/07 18:16:43;;;;;;;10.68;10.38;;;32.20;75.60;;;;;;4981073;28;20234;-78
2023/07/07 18:19:13;;;;;;;10.45;10.15;;;32.00;75.90;;;;;;4981295;28;20305;-77
2023/07/07 18:21:42;;;;;;;10.73;10.43;;;31.80;75.60;;;;;;4980938;28;20237;-77
2023/07/07 18:24:11;;;;;;;10.35;10.05;;;31.70;76.10;;;;;;4983704;28;20253;-77
2023/07/07 18:26:42;;;;;;;10.63;10.32;;;31.50;76.50;;;;;;4984956;28;20229;-79
2023/07/07 18:29:14;;;;;;;10.50;10.20;;;31.40;77.30;;;;;;4988391;28;20301;-78
2023/07/07 18:31:43;;;;;;;10.40;10.10;;;31.20;77.70;;;;;;4987430;28;20238;-78
2023/07/07 18:34:11;;;;;;;10.30;10.00;;;31.20;78.10;;;;;;4985986;28;20253;-78
2023/07/07 18:36:40;;;;;;;10.27;9.98;;;31.00;77.20;;;;;;4988024;28;20276;-79
2023/07/07 18:39:22;;;;;;;10.57;10.27;;;31.00;78.20;;;;;;4987914;28;20268;-78
2023/07/07 18:41:52;;;;;;;10.50;10.20;;;30.80;78.20;;;;;;4987813;28;20269;-78
2023/07/07 18:44:21;;;;;;;10.60;10.30;;;30.60;79.50;;;;;;4987200;28;20237;-78
2023/07/07 18:46:50;;;;;;;10.68;10.38;;;30.40;79.50;;;;;;4989413;28;20237;-78
2023/07/07 18:49:17;;;;;;;10.80;10.50;;;30.10;79.70;;;;;;4989559;28;20253;-78
2023/07/07 18:51:46;;;;;;;10.70;10.40;;;29.70;80.60;;;;;;4993174;28;20240;-77
2023/07/07 18:54:15;;;;;;;10.60;10.30;;;29.50;82.00;;;;;;4993009;28;20261;-77
2023/07/07 18:56:46;;;;;;;10.73;10.43;;;29.30;82.60;;;;;;4992487;28;20225;-78
2023/07/07 18:59:17;;;;;;;10.90;10.60;;;29.10;83.10;;;;;;4992027;28;20230;-77
2023/07/07 19:01:45;;;;;;;10.90;10.60;;;28.80;83.50;;;;;;4998523;28;20220;-77
2023/07/07 19:04:12;;;;;;;10.88;10.57;;;28.60;84.30;;;;;;4994358;28;20233;-77
2023/07/07 19:06:42;;;;;;;10.90;10.60;;;28.40;85.10;;;;;;4993946;28;20232;-78
2023/07/07 19:09:17;;;;;;;10.80;10.50;;;28.20;85.80;;;;;;4991923;28;20232;-78
2023/07/07 19:11:45;;;;;;;10.70;10.40;;;28.20;85.80;;;;;;4991753;28;20233;-78
2023/07/07 19:14:14;;;;;;;10.68;10.38;;;28.00;87.10;;;;;;4991933;28;20229;-77
2023/07/07 19:16:42;;;;;;;10.80;10.50;;;27.90;87.00;;;;;;4992345;28;20249;-76
2023/07/07 19:19:18;;;;;;;10.80;10.50;;;27.80;87.50;;;;;;4992190;28;20306;-77
2023/07/07 19:21:45;;;;;;;10.70;10.40;;;27.60;88.00;;;;;;4988623;28;20243;-78
2023/07/07 19:24:13;;;;;;;10.70;10.40;;;27.50;88.60;;;;;;4985775;28;20273;-77
2023/07/07 19:26:46;;;;;;;10.77;10.48;;;27.40;88.90;;;;;;4984925;28;20238;-77
2023/07/07 19:29:15;;;;;;;10.88;10.57;;;27.30;89.20;;;;;;4984028;28;20239;-77
2023/07/07 19:31:43;;;;;;;10.77;10.48;;;27.20;89.80;;;;;;4983912;28;21062;-77
2023/07/07 19:34:12;;;;;;;10.65;10.35;;;27.20;89.90;;;;;;4982289;28;20237;-77
2023/07/07 19:36:44;;;;;;;10.88;10.57;;;27.10;90.10;;;;;;4983119;28;20226;-78
2023/07/07 19:39:17;;;;;;;10.52;10.23;;;27.00;90.30;;;;;;4983419;28;20244;-77
2023/07/07 19:41:45;;;;;;;10.35;10.05;;;26.90;90.50;;;;;;4983437;28;20328;-78
2023/07/07 19:44:15;;;;;;;10.80;10.50;;;26.90;90.70;;;;;;4982596;28;20266;-77
2023/07/07 19:46:44;;;;;;;10.60;10.30;;;26.80;90.70;;;;;;4984052;28;20324;-77
2023/07/07 19:49:18;;;;;;;10.50;10.20;;;26.70;90.90;;;;;;4982836;28;20293;-78
2023/07/07 19:51:47;;;;;;;10.40;10.10;;;26.60;91.30;;;;;;4983387;28;20323;-78
2023/07/07 19:54:15;;;;;;;10.32;10.02;;;26.40;91.40;;;;;;4983129;28;20281;-78
2023/07/07 19:56:42;;;;;;;10.43;10.13;;;26.30;91.70;;;;;;4984846;28;20233;-78
2023/07/07 19:59:16;;;;;;;9.77;9.48;;;26.20;91.80;;;;;;4987556;28;20241;-78
2023/07/07 20:01:44;;;;;;;9.80;9.50;;;26.20;92.10;;;;;;4983188;28;20332;-78
2023/07/07 20:04:11;;;;;;;9.70;9.40;;;26.10;92.30;;;;;;4983441;28;20297;-78
2023/07/07 20:06:42;;;;;;;10.15;9.85;;;26.00;92.50;;;;;;4983783;28;20239;-77
2023/07/07 20:09:16;;;;;;;10.10;9.80;;;25.90;92.90;;;;;;4982870;28;20225;-77
2023/07/07 20:11:44;;;;;;;9.75;9.45;;;25.80;92.90;;;;;;4983296;28;20233;-77
2023/07/07 20:14:11;;;;;;;9.80;9.50;;;25.80;92.90;;;;;;4981649;28;20237;-77
2023/07/07 20:16:45;;;;;;;10.10;9.80;;;25.70;93.30;;;;;;4982173;28;20245;-77
2023/07/07 20:19:15;;;;;;;10.10;9.80;;;25.70;93.50;;;;;;4983145;28;20297;-78
2023/07/07 20:21:42;;;;;;;10.20;9.90;;;25.60;93.50;;;;;;4982884;28;20245;-78
2023/07/07 20:24:16;;;;;;;10.15;9.85;;;25.50;93.70;;;;;;4983502;28;20272;-78
2023/07/07 20:26:44;;;;;;;10.20;9.90;;;25.50;93.80;;;;;;4982661;28;20228;-78
2023/07/07 20:29:12;;;;;;;10.15;9.85;;;25.40;93.80;;;;;;4983166;28;20245;-78
2023/07/07 20:31:41;;;;;;;9.90;9.60;;;25.30;94.00;;;;;;4982814;28;20304;-78
2023/07/07 20:34:11;;;;;;;10.00;9.70;;;25.30;93.80;;;;;;4982646;28;20249;-78
2023/07/07 20:36:39;;;;;;;10.00;9.70;;;25.30;94.00;;;;;;4984177;28;20325;-78
2023/07/07 20:39:13;;;;;;;10.02;9.73;;;25.20;94.70;;;;;;4983641;28;20239;-78
2023/07/07 20:41:41;;;;;;;10.20;9.90;;;25.10;94.70;;;;;;4984178;28;20256;-77
2023/07/07 20:44:09;;;;;;;10.10;9.80;;;25.00;94.60;;;;;;4984369;28;20340;-81
2023/07/07 20:46:40;;;;;;;10.10;9.80;;;24.80;94.90;;;;;;4983425;28;20249;-78
2023/07/07 20:49:15;;;;;;;10.10;9.80;;;24.80;95.20;;;;;;4983834;28;20233;-78
2023/07/07 20:51:44;;;;;;;10.15;9.85;;;24.80;95.60;;;;;;4984028;28;20243;-78
2023/07/07 20:54:11;;;;;;;10.25;9.95;;;24.70;95.80;;;;;;4986121;28;20237;-77
2023/07/07 20:56:39;;;;;;;10.30;10.00;;;24.60;96.00;;;;;;4987477;28;20324;-78
2023/07/07 20:59:11;;;;;;;10.30;10.00;;;24.60;96.60;;;;;;4985876;28;20338;-77
2023/07/07 21:01:38;;;;;;;10.82;10.52;;;24.50;97.00;;;;;;4983336;28;20237;-76
2023/07/07 21:04:08;;;;;;;10.30;10.00;;;24.40;97.20;;;;;;4982380;28;20285;-78
2023/07/07 21:06:37;;;;;;;10.30;10.00;;;24.40;97.00;;;;;;4982014;28;20298;-77
2023/07/07 21:09:10;;;;;;;10.20;9.90;;;24.30;97.20;;;;;;4982875;28;20237;-78
2023/07/07 21:11:37;;;;;;;10.32;10.02;;;24.20;97.30;;;;;;4983053;28;20289;-81
2023/07/07 21:14:04;;;;;;;10.60;10.30;;;24.20;97.40;;;;;;4983217;28;20248;-78
2023/07/07 21:16:32;;;;;;;10.70;10.40;;;24.10;97.60;;;;;;4982571;28;20248;-77
2023/07/07 21:19:00;;;;;;;10.43;10.13;;;24.00;98.90;;;;;;4982598;28;20233;-78
2023/07/07 21:21:28;;;;;;;10.60;10.30;;;23.90;99.60;;;;;;4982603;28;20237;-78
2023/07/07 21:23:57;;;;;;;10.38;10.07;;;23.90;99.90;;;;;;4981771;28;20776;-77
2023/07/07 21:26:30;;;;;;;10.60;10.30;;;23.80;99.90;;;;;;4982343;28;20235;-78
2023/07/07 21:28:58;;;;;;;10.55;10.25;;;23.70;99.90;;;;;;4981351;28;20237;-77
2023/07/07 21:31:29;;;;;;;10.55;10.25;;;23.60;99.90;;;;;;4981460;28;20709;-79
2023/07/07 21:33:57;;;;;;;10.70;10.40;;;23.50;99.90;;;;;;4981366;28;20238;-79
2023/07/07 21:36:31;;;;;;;10.40;10.10;;;23.40;99.90;;;;;;4981795;28;20271;-77
2023/07/07 21:39:16;;;;;;;10.60;10.30;;;23.40;99.90;;;;;;4981223;28;20243;-77
2023/07/07 21:41:43;;;;;;;10.80;10.50;;;23.30;99.90;;;;;;4982143;28;20248;-77
2023/07/07 21:44:13;;;;;;;10.52;10.23;;;23.20;99.90;;;;;;4981742;28;20311;-79
2023/07/07 21:46:41;;;;;;;10.70;10.40;;;23.10;99.90;;;;;;4984517;28;20260;-80
2023/07/07 21:49:14;;;;;;;10.55;10.25;;;23.00;99.90;;;;;;4986099;28;20244;-80
2023/07/07 21:51:42;;;;;;;10.70;10.40;;;22.90;99.90;;;;;;4987186;28;20244;-80
2023/07/07 21:54:12;;;;;;;10.73;10.43;;;22.80;99.90;;;;;;4992348;28;20263;-80
2023/07/07 21:56:42;;;;;;;10.80;10.50;;;22.70;99.90;;;;;;4993353;28;20269;-79
2023/07/07 21:59:24;;;;;;;10.90;10.60;;;22.60;99.90;;;;;;4994970;28;20313;-79
2023/07/07 22:01:53;;;;;;;10.60;10.30;;;22.50;99.90;;;;;;4985749;28;20229;-80
2023/07/07 22:04:22;;;;;;;10.77;10.48;;;22.40;99.90;;;;;;4982990;28;20308;-80
2023/07/07 22:06:50;;;;;;;10.75;10.45;;;22.30;99.90;;;;;;4977324;28;20238;-79
2023/07/07 22:09:23;;;;;;;10.93;10.63;;;22.20;99.90;;;;;;4979735;28;20233;-80
2023/07/07 22:11:51;;;;;;;10.80;10.50;;;22.10;99.90;;;;;;4981355;28;20825;-78
2023/07/07 22:14:18;;;;;;;10.70;10.40;;;22.00;99.90;;;;;;4977835;28;20288;-78